<?xml version="1.0" encoding="UTF-8" standalone="no" ?>
<gpx xmlns="http://www.topografix.com/GPX/1/1" xmlns:xsi="http://www.w3.org/2001/XMLSchema-instance" xsi:schemaLocation="http://www.topografix.com/GPX/1/1 http://www.topografix.com/GPX/1/1/gpx.xsd" version="1.1" creator="VisuGPX - https://www.visugpx.com">
  <metadata>
    <name>La balade d'Azet</name>
  </metadata>
  <wpt lat="42.81045" lon="0.35216">
    <ele>1163</ele>
    <name><![CDATA[Parking de l'église]]></name>
  </wpt>
  <wpt lat="42.81047" lon="0.35244">
    <ele>1165</ele>
    <name><![CDATA[Chemin goudronné]]></name>
  </wpt>
  <wpt lat="42.8066" lon="0.35809">
    <ele>1189</ele>
    <name><![CDATA[Chemin goudronné]]></name>
  </wpt>
  <wpt lat="42.80238" lon="0.36081">
    <ele>1187</ele>
    <name><![CDATA[Croix de Routias]]></name>
  </wpt>
  <wpt lat="42.79768" lon="0.36268">
    <ele>1231</ele>
    <name><![CDATA[Fourche - Chemin goudronné]]></name>
  </wpt>
  <wpt lat="42.78903" lon="0.36558">
    <ele>1256</ele>
    <name><![CDATA[Petit camping]]></name>
  </wpt>
  <wpt lat="42.78785" lon="0.36481">
    <ele>1249</ele>
    <name><![CDATA[Pont]]></name>
  </wpt>
  <wpt lat="42.78793" lon="0.36456">
    <ele>1248</ele>
    <name><![CDATA[Pont]]></name>
  </wpt>
  <wpt lat="42.79376" lon="0.36164">
    <ele>1206</ele>
    <name><![CDATA[Fourche]]></name>
  </wpt>
  <wpt lat="42.79265" lon="0.3515">
    <ele>1142</ele>
    <name><![CDATA[Passage à gué]]></name>
  </wpt>
  <wpt lat="42.79289" lon="0.35006">
    <ele>1144</ele>
    <name><![CDATA[Clairière]]></name>
  </wpt>
  <wpt lat="42.78475" lon="0.34832">
    <ele>1195</ele>
    <name><![CDATA[Cascade d'Arsoué]]></name>
  </wpt>
  <wpt lat="42.80384" lon="0.35335">
    <ele>1174</ele>
    <name><![CDATA[Granges d'Arsoué]]></name>
  </wpt>
  <wpt lat="42.807" lon="0.35387">
    <ele>1083</ele>
    <name><![CDATA[Pont]]></name>
  </wpt>
  <wpt lat="42.81045" lon="0.35217">
    <ele>1163</ele>
    <name><![CDATA[Parking de l'église]]></name>
  </wpt>
  <trk>
    <name><![CDATA[La balade d'Azet]]></name>
    <trkseg>
      <trkpt lat="42.81045" lon="0.35216">
        <ele>1163</ele>
        <time>2021-03-11T22:41:57+01:00</time>
      </trkpt>
      <trkpt lat="42.81047" lon="0.35244">
        <ele>1165</ele>
        <time>2021-03-11T22:42:02+01:00</time>
      </trkpt>
      <trkpt lat="42.81045" lon="0.35272">
        <ele>1167</ele>
        <time>2021-03-11T22:42:07+01:00</time>
      </trkpt>
      <trkpt lat="42.81044" lon="0.35292">
        <ele>1168</ele>
        <time>2021-03-11T22:42:12+01:00</time>
      </trkpt>
      <trkpt lat="42.81035" lon="0.35341">
        <ele>1170</ele>
        <time>2021-03-11T22:42:17+01:00</time>
      </trkpt>
      <trkpt lat="42.81025" lon="0.35368">
        <ele>1170</ele>
        <time>2021-03-11T22:42:22+01:00</time>
      </trkpt>
      <trkpt lat="42.81003" lon="0.35426">
        <ele>1171</ele>
        <time>2021-03-11T22:42:27+01:00</time>
      </trkpt>
      <trkpt lat="42.80986" lon="0.35459">
        <ele>1170</ele>
        <time>2021-03-11T22:42:32+01:00</time>
      </trkpt>
      <trkpt lat="42.80955" lon="0.35495">
        <ele>1166</ele>
        <time>2021-03-11T22:42:37+01:00</time>
      </trkpt>
      <trkpt lat="42.8089" lon="0.35567">
        <ele>1164</ele>
        <time>2021-03-11T22:42:42+01:00</time>
      </trkpt>
      <trkpt lat="42.80865" lon="0.35596">
        <ele>1165</ele>
        <time>2021-03-11T22:42:47+01:00</time>
      </trkpt>
      <trkpt lat="42.80838" lon="0.35619">
        <ele>1165</ele>
        <time>2021-03-11T22:42:52+01:00</time>
      </trkpt>
      <trkpt lat="42.80799" lon="0.35649">
        <ele>1166</ele>
        <time>2021-03-11T22:42:57+01:00</time>
      </trkpt>
      <trkpt lat="42.80768" lon="0.35676">
        <ele>1168</ele>
        <time>2021-03-11T22:43:02+01:00</time>
      </trkpt>
      <trkpt lat="42.80752" lon="0.35701">
        <ele>1171</ele>
        <time>2021-03-11T22:43:07+01:00</time>
      </trkpt>
      <trkpt lat="42.8074" lon="0.35726">
        <ele>1176</ele>
        <time>2021-03-11T22:43:12+01:00</time>
      </trkpt>
      <trkpt lat="42.80732" lon="0.35755">
        <ele>1182</ele>
        <time>2021-03-11T22:43:17+01:00</time>
      </trkpt>
      <trkpt lat="42.80721" lon="0.3576">
        <ele>1182</ele>
        <time>2021-03-11T22:43:22+01:00</time>
      </trkpt>
      <trkpt lat="42.80704" lon="0.35767">
        <ele>1182</ele>
        <time>2021-03-11T22:43:27+01:00</time>
      </trkpt>
      <trkpt lat="42.80692" lon="0.35779">
        <ele>1185</ele>
        <time>2021-03-11T22:43:32+01:00</time>
      </trkpt>
      <trkpt lat="42.80678" lon="0.358">
        <ele>1189</ele>
        <time>2021-03-11T22:43:37+01:00</time>
      </trkpt>
      <trkpt lat="42.8066" lon="0.35809">
        <ele>1189</ele>
        <time>2021-03-11T22:43:42+01:00</time>
      </trkpt>
      <trkpt lat="42.80591" lon="0.3582">
        <ele>1179</ele>
        <time>2021-03-11T22:43:47+01:00</time>
      </trkpt>
      <trkpt lat="42.80578" lon="0.35822">
        <ele>1176</ele>
        <time>2021-03-11T22:43:52+01:00</time>
      </trkpt>
      <trkpt lat="42.80549" lon="0.35842">
        <ele>1177</ele>
        <time>2021-03-11T22:43:57+01:00</time>
      </trkpt>
      <trkpt lat="42.80502" lon="0.35877">
        <ele>1178</ele>
        <time>2021-03-11T22:44:02+01:00</time>
      </trkpt>
      <trkpt lat="42.8045" lon="0.35923">
        <ele>1182</ele>
        <time>2021-03-11T22:44:07+01:00</time>
      </trkpt>
      <trkpt lat="42.80384" lon="0.35983">
        <ele>1187</ele>
        <time>2021-03-11T22:44:12+01:00</time>
      </trkpt>
      <trkpt lat="42.80337" lon="0.36015">
        <ele>1181</ele>
        <time>2021-03-11T22:44:17+01:00</time>
      </trkpt>
      <trkpt lat="42.8031" lon="0.36035">
        <ele>1183</ele>
        <time>2021-03-11T22:44:22+01:00</time>
      </trkpt>
      <trkpt lat="42.803" lon="0.36052">
        <ele>1185</ele>
        <time>2021-03-11T22:44:27+01:00</time>
      </trkpt>
      <trkpt lat="42.80288" lon="0.36083">
        <ele>1190</ele>
        <time>2021-03-11T22:44:32+01:00</time>
      </trkpt>
      <trkpt lat="42.80271" lon="0.36116">
        <ele>1197</ele>
        <time>2021-03-11T22:44:37+01:00</time>
      </trkpt>
      <trkpt lat="42.80252" lon="0.36108">
        <ele>1193</ele>
        <time>2021-03-11T22:44:42+01:00</time>
      </trkpt>
      <trkpt lat="42.80244" lon="0.36092">
        <ele>1189</ele>
        <time>2021-03-11T22:44:47+01:00</time>
      </trkpt>
      <trkpt lat="42.80238" lon="0.36081">
        <ele>1187</ele>
        <time>2021-03-11T22:44:52+01:00</time>
      </trkpt>
      <trkpt lat="42.8022" lon="0.36074">
        <ele>1187</ele>
        <time>2021-03-11T22:44:57+01:00</time>
      </trkpt>
      <trkpt lat="42.80185" lon="0.36067">
        <ele>1189</ele>
        <time>2021-03-11T22:45:02+01:00</time>
      </trkpt>
      <trkpt lat="42.80119" lon="0.36069">
        <ele>1194</ele>
        <time>2021-03-11T22:45:07+01:00</time>
      </trkpt>
      <trkpt lat="42.80049" lon="0.36081">
        <ele>1204</ele>
        <time>2021-03-11T22:45:12+01:00</time>
      </trkpt>
      <trkpt lat="42.80001" lon="0.36095">
        <ele>1215</ele>
        <time>2021-03-11T22:45:17+01:00</time>
      </trkpt>
      <trkpt lat="42.79964" lon="0.3611">
        <ele>1222</ele>
        <time>2021-03-11T22:45:22+01:00</time>
      </trkpt>
      <trkpt lat="42.79924" lon="0.36139">
        <ele>1233</ele>
        <time>2021-03-11T22:45:27+01:00</time>
      </trkpt>
      <trkpt lat="42.79874" lon="0.36177">
        <ele>1234</ele>
        <time>2021-03-11T22:45:32+01:00</time>
      </trkpt>
      <trkpt lat="42.79837" lon="0.3622">
        <ele>1234</ele>
        <time>2021-03-11T22:45:37+01:00</time>
      </trkpt>
      <trkpt lat="42.79812" lon="0.36243">
        <ele>1234</ele>
        <time>2021-03-11T22:45:42+01:00</time>
      </trkpt>
      <trkpt lat="42.79779" lon="0.36264">
        <ele>1233</ele>
        <time>2021-03-11T22:45:47+01:00</time>
      </trkpt>
      <trkpt lat="42.79768" lon="0.36268">
        <ele>1231</ele>
        <time>2021-03-11T22:45:52+01:00</time>
      </trkpt>
      <trkpt lat="42.79751" lon="0.36279">
        <ele>1230</ele>
        <time>2021-03-11T22:45:57+01:00</time>
      </trkpt>
      <trkpt lat="42.79738" lon="0.36298">
        <ele>1232</ele>
        <time>2021-03-11T22:46:02+01:00</time>
      </trkpt>
      <trkpt lat="42.79701" lon="0.36367">
        <ele>1242</ele>
        <time>2021-03-11T22:46:07+01:00</time>
      </trkpt>
      <trkpt lat="42.79659" lon="0.36413">
        <ele>1244</ele>
        <time>2021-03-11T22:46:12+01:00</time>
      </trkpt>
      <trkpt lat="42.79621" lon="0.36436">
        <ele>1243</ele>
        <time>2021-03-11T22:46:17+01:00</time>
      </trkpt>
      <trkpt lat="42.79587" lon="0.36447">
        <ele>1240</ele>
        <time>2021-03-11T22:46:22+01:00</time>
      </trkpt>
      <trkpt lat="42.79549" lon="0.3649">
        <ele>1241</ele>
        <time>2021-03-11T22:46:27+01:00</time>
      </trkpt>
      <trkpt lat="42.79484" lon="0.36552">
        <ele>1239</ele>
        <time>2021-03-11T22:46:32+01:00</time>
      </trkpt>
      <trkpt lat="42.79402" lon="0.36598">
        <ele>1236</ele>
        <time>2021-03-11T22:46:37+01:00</time>
      </trkpt>
      <trkpt lat="42.79345" lon="0.36623">
        <ele>1243</ele>
        <time>2021-03-11T22:46:42+01:00</time>
      </trkpt>
      <trkpt lat="42.79291" lon="0.36635">
        <ele>1251</ele>
        <time>2021-03-11T22:46:47+01:00</time>
      </trkpt>
      <trkpt lat="42.79252" lon="0.3664">
        <ele>1257</ele>
        <time>2021-03-11T22:46:52+01:00</time>
      </trkpt>
      <trkpt lat="42.79226" lon="0.36632">
        <ele>1258</ele>
        <time>2021-03-11T22:46:57+01:00</time>
      </trkpt>
      <trkpt lat="42.79195" lon="0.36616">
        <ele>1254</ele>
        <time>2021-03-11T22:47:02+01:00</time>
      </trkpt>
      <trkpt lat="42.79151" lon="0.36613">
        <ele>1256</ele>
        <time>2021-03-11T22:47:07+01:00</time>
      </trkpt>
      <trkpt lat="42.7909" lon="0.36626">
        <ele>1267</ele>
        <time>2021-03-11T22:47:12+01:00</time>
      </trkpt>
      <trkpt lat="42.7906" lon="0.36619">
        <ele>1264</ele>
        <time>2021-03-11T22:47:17+01:00</time>
      </trkpt>
      <trkpt lat="42.79034" lon="0.366">
        <ele>1256</ele>
        <time>2021-03-11T22:47:22+01:00</time>
      </trkpt>
      <trkpt lat="42.79008" lon="0.36586">
        <ele>1250</ele>
        <time>2021-03-11T22:47:27+01:00</time>
      </trkpt>
      <trkpt lat="42.78943" lon="0.36568">
        <ele>1253</ele>
        <time>2021-03-11T22:47:32+01:00</time>
      </trkpt>
      <trkpt lat="42.78903" lon="0.36558">
        <ele>1256</ele>
        <time>2021-03-11T22:47:37+01:00</time>
      </trkpt>
      <trkpt lat="42.7887" lon="0.36554">
        <ele>1262</ele>
        <time>2021-03-11T22:47:42+01:00</time>
      </trkpt>
      <trkpt lat="42.78837" lon="0.36546">
        <ele>1266</ele>
        <time>2021-03-11T22:47:47+01:00</time>
      </trkpt>
      <trkpt lat="42.78817" lon="0.3653">
        <ele>1263</ele>
        <time>2021-03-11T22:47:52+01:00</time>
      </trkpt>
      <trkpt lat="42.78801" lon="0.36512">
        <ele>1258</ele>
        <time>2021-03-11T22:47:57+01:00</time>
      </trkpt>
      <trkpt lat="42.78785" lon="0.36481">
        <ele>1249</ele>
        <time>2021-03-11T22:48:02+01:00</time>
      </trkpt>
      <trkpt lat="42.78793" lon="0.36456">
        <ele>1248</ele>
        <time>2021-03-11T22:48:07+01:00</time>
      </trkpt>
      <trkpt lat="42.7881" lon="0.3645">
        <ele>1245</ele>
        <time>2021-03-11T22:48:12+01:00</time>
      </trkpt>
      <trkpt lat="42.78827" lon="0.3644">
        <ele>1242</ele>
        <time>2021-03-11T22:48:17+01:00</time>
      </trkpt>
      <trkpt lat="42.78864" lon="0.36433">
        <ele>1240</ele>
        <time>2021-03-11T22:48:22+01:00</time>
      </trkpt>
      <trkpt lat="42.78889" lon="0.36417">
        <ele>1238</ele>
        <time>2021-03-11T22:48:27+01:00</time>
      </trkpt>
      <trkpt lat="42.7893" lon="0.36394">
        <ele>1235</ele>
        <time>2021-03-11T22:48:32+01:00</time>
      </trkpt>
      <trkpt lat="42.78968" lon="0.36361">
        <ele>1229</ele>
        <time>2021-03-11T22:48:37+01:00</time>
      </trkpt>
      <trkpt lat="42.78998" lon="0.36327">
        <ele>1224</ele>
        <time>2021-03-11T22:48:42+01:00</time>
      </trkpt>
      <trkpt lat="42.79023" lon="0.36309">
        <ele>1226</ele>
        <time>2021-03-11T22:48:47+01:00</time>
      </trkpt>
      <trkpt lat="42.79062" lon="0.36301">
        <ele>1224</ele>
        <time>2021-03-11T22:48:52+01:00</time>
      </trkpt>
      <trkpt lat="42.79101" lon="0.36282">
        <ele>1223</ele>
        <time>2021-03-11T22:48:57+01:00</time>
      </trkpt>
      <trkpt lat="42.79156" lon="0.36267">
        <ele>1220</ele>
        <time>2021-03-11T22:49:02+01:00</time>
      </trkpt>
      <trkpt lat="42.79185" lon="0.36249">
        <ele>1216</ele>
        <time>2021-03-11T22:49:07+01:00</time>
      </trkpt>
      <trkpt lat="42.79201" lon="0.3623">
        <ele>1219</ele>
        <time>2021-03-11T22:49:12+01:00</time>
      </trkpt>
      <trkpt lat="42.79238" lon="0.36214">
        <ele>1218</ele>
        <time>2021-03-11T22:49:17+01:00</time>
      </trkpt>
      <trkpt lat="42.79281" lon="0.362">
        <ele>1215</ele>
        <time>2021-03-11T22:49:22+01:00</time>
      </trkpt>
      <trkpt lat="42.79334" lon="0.3618">
        <ele>1209</ele>
        <time>2021-03-11T22:49:27+01:00</time>
      </trkpt>
      <trkpt lat="42.7936" lon="0.3618">
        <ele>1248</ele>
        <time>2021-03-11T22:49:32+01:00</time>
      </trkpt>
      <trkpt lat="42.79376" lon="0.36164">
        <ele>1206</ele>
        <time>2021-03-11T22:49:37+01:00</time>
      </trkpt>
      <trkpt lat="42.79378" lon="0.36142">
        <ele>1253</ele>
        <time>2021-03-11T22:49:42+01:00</time>
      </trkpt>
      <trkpt lat="42.79386" lon="0.36112">
        <ele>1215</ele>
        <time>2021-03-11T22:49:47+01:00</time>
      </trkpt>
      <trkpt lat="42.79421" lon="0.36087">
        <ele>1213</ele>
        <time>2021-03-11T22:49:52+01:00</time>
      </trkpt>
      <trkpt lat="42.7949" lon="0.36045">
        <ele>1206</ele>
        <time>2021-03-11T22:49:57+01:00</time>
      </trkpt>
      <trkpt lat="42.79555" lon="0.36016">
        <ele>1194</ele>
        <time>2021-03-11T22:50:02+01:00</time>
      </trkpt>
      <trkpt lat="42.7958" lon="0.3599">
        <ele>1190</ele>
        <time>2021-03-11T22:50:07+01:00</time>
      </trkpt>
      <trkpt lat="42.796" lon="0.35958">
        <ele>1191</ele>
        <time>2021-03-11T22:50:12+01:00</time>
      </trkpt>
      <trkpt lat="42.79615" lon="0.35936">
        <ele>1191</ele>
        <time>2021-03-11T22:50:17+01:00</time>
      </trkpt>
      <trkpt lat="42.79642" lon="0.35916">
        <ele>1184</ele>
        <time>2021-03-11T22:50:22+01:00</time>
      </trkpt>
      <trkpt lat="42.79653" lon="0.35897">
        <ele>1183</ele>
        <time>2021-03-11T22:50:27+01:00</time>
      </trkpt>
      <trkpt lat="42.79663" lon="0.35887">
        <ele>1180</ele>
        <time>2021-03-11T22:50:32+01:00</time>
      </trkpt>
      <trkpt lat="42.79663" lon="0.35864">
        <ele>1183</ele>
        <time>2021-03-11T22:50:37+01:00</time>
      </trkpt>
      <trkpt lat="42.79654" lon="0.35817">
        <ele>1188</ele>
        <time>2021-03-11T22:50:42+01:00</time>
      </trkpt>
      <trkpt lat="42.79632" lon="0.35778">
        <ele>1193</ele>
        <time>2021-03-11T22:50:47+01:00</time>
      </trkpt>
      <trkpt lat="42.79612" lon="0.35747">
        <ele>1197</ele>
        <time>2021-03-11T22:50:52+01:00</time>
      </trkpt>
      <trkpt lat="42.79596" lon="0.35699">
        <ele>1193</ele>
        <time>2021-03-11T22:50:57+01:00</time>
      </trkpt>
      <trkpt lat="42.79578" lon="0.35665">
        <ele>1193</ele>
        <time>2021-03-11T22:51:02+01:00</time>
      </trkpt>
      <trkpt lat="42.79549" lon="0.35617">
        <ele>1190</ele>
        <time>2021-03-11T22:51:07+01:00</time>
      </trkpt>
      <trkpt lat="42.79513" lon="0.35542">
        <ele>1182</ele>
        <time>2021-03-11T22:51:12+01:00</time>
      </trkpt>
      <trkpt lat="42.79484" lon="0.35488">
        <ele>1174</ele>
        <time>2021-03-11T22:51:17+01:00</time>
      </trkpt>
      <trkpt lat="42.79472" lon="0.35455">
        <ele>1169</ele>
        <time>2021-03-11T22:51:22+01:00</time>
      </trkpt>
      <trkpt lat="42.79434" lon="0.3542">
        <ele>1167</ele>
        <time>2021-03-11T22:51:27+01:00</time>
      </trkpt>
      <trkpt lat="42.79396" lon="0.35399">
        <ele>1177</ele>
        <time>2021-03-11T22:51:32+01:00</time>
      </trkpt>
      <trkpt lat="42.79357" lon="0.35368">
        <ele>1183</ele>
        <time>2021-03-11T22:51:37+01:00</time>
      </trkpt>
      <trkpt lat="42.79325" lon="0.35332">
        <ele>1180</ele>
        <time>2021-03-11T22:51:42+01:00</time>
      </trkpt>
      <trkpt lat="42.79279" lon="0.35293">
        <ele>1189</ele>
        <time>2021-03-11T22:51:47+01:00</time>
      </trkpt>
      <trkpt lat="42.79261" lon="0.35265">
        <ele>1182</ele>
        <time>2021-03-11T22:51:52+01:00</time>
      </trkpt>
      <trkpt lat="42.79251" lon="0.35231">
        <ele>1170</ele>
        <time>2021-03-11T22:51:57+01:00</time>
      </trkpt>
      <trkpt lat="42.79254" lon="0.35186">
        <ele>1151</ele>
        <time>2021-03-11T22:52:02+01:00</time>
      </trkpt>
      <trkpt lat="42.79265" lon="0.3515">
        <ele>1142</ele>
        <time>2021-03-11T22:52:07+01:00</time>
      </trkpt>
      <trkpt lat="42.79277" lon="0.35125">
        <ele>1141</ele>
        <time>2021-03-11T22:52:12+01:00</time>
      </trkpt>
      <trkpt lat="42.79289" lon="0.35096">
        <ele>1140</ele>
        <time>2021-03-11T22:52:17+01:00</time>
      </trkpt>
      <trkpt lat="42.79286" lon="0.35074">
        <ele>1140</ele>
        <time>2021-03-11T22:52:22+01:00</time>
      </trkpt>
      <trkpt lat="42.79289" lon="0.35041">
        <ele>1142</ele>
        <time>2021-03-11T22:52:27+01:00</time>
      </trkpt>
      <trkpt lat="42.79289" lon="0.35006">
        <ele>1144</ele>
        <time>2021-03-11T22:52:32+01:00</time>
      </trkpt>
      <trkpt lat="42.79226" lon="0.34968">
        <ele>1147</ele>
        <time>2021-03-11T22:52:37+01:00</time>
      </trkpt>
      <trkpt lat="42.79178" lon="0.34945">
        <ele>1150</ele>
        <time>2021-03-11T22:52:42+01:00</time>
      </trkpt>
      <trkpt lat="42.7909" lon="0.349">
        <ele>1159</ele>
        <time>2021-03-11T22:52:47+01:00</time>
      </trkpt>
      <trkpt lat="42.79012" lon="0.34891">
        <ele>1163</ele>
        <time>2021-03-11T22:52:52+01:00</time>
      </trkpt>
      <trkpt lat="42.78955" lon="0.34891">
        <ele>1166</ele>
        <time>2021-03-11T22:52:57+01:00</time>
      </trkpt>
      <trkpt lat="42.78889" lon="0.34895">
        <ele>1170</ele>
        <time>2021-03-11T22:53:02+01:00</time>
      </trkpt>
      <trkpt lat="42.78846" lon="0.34894">
        <ele>1173</ele>
        <time>2021-03-11T22:53:07+01:00</time>
      </trkpt>
      <trkpt lat="42.78816" lon="0.34901">
        <ele>1175</ele>
        <time>2021-03-11T22:53:12+01:00</time>
      </trkpt>
      <trkpt lat="42.78793" lon="0.34901">
        <ele>1176</ele>
        <time>2021-03-11T22:53:17+01:00</time>
      </trkpt>
      <trkpt lat="42.78705" lon="0.349">
        <ele>1180</ele>
        <time>2021-03-11T22:53:22+01:00</time>
      </trkpt>
      <trkpt lat="42.78648" lon="0.34888">
        <ele>1182</ele>
        <time>2021-03-11T22:53:27+01:00</time>
      </trkpt>
      <trkpt lat="42.78619" lon="0.34867">
        <ele>1182</ele>
        <time>2021-03-11T22:53:32+01:00</time>
      </trkpt>
      <trkpt lat="42.78568" lon="0.34843">
        <ele>1183</ele>
        <time>2021-03-11T22:53:37+01:00</time>
      </trkpt>
      <trkpt lat="42.78538" lon="0.34836">
        <ele>1187</ele>
        <time>2021-03-11T22:53:42+01:00</time>
      </trkpt>
      <trkpt lat="42.785" lon="0.34839">
        <ele>1194</ele>
        <time>2021-03-11T22:53:47+01:00</time>
      </trkpt>
      <trkpt lat="42.78475" lon="0.34832">
        <ele>1195</ele>
        <time>2021-03-11T22:53:52+01:00</time>
      </trkpt>
      <trkpt lat="42.78501" lon="0.34836">
        <ele>1194</ele>
        <time>2021-03-11T22:53:57+01:00</time>
      </trkpt>
      <trkpt lat="42.78539" lon="0.34836">
        <ele>1187</ele>
        <time>2021-03-11T22:54:02+01:00</time>
      </trkpt>
      <trkpt lat="42.78568" lon="0.34843">
        <ele>1183</ele>
        <time>2021-03-11T22:54:07+01:00</time>
      </trkpt>
      <trkpt lat="42.78649" lon="0.34888">
        <ele>1182</ele>
        <time>2021-03-11T22:54:12+01:00</time>
      </trkpt>
      <trkpt lat="42.78704" lon="0.34901">
        <ele>1180</ele>
        <time>2021-03-11T22:54:17+01:00</time>
      </trkpt>
      <trkpt lat="42.78789" lon="0.34906">
        <ele>1176</ele>
        <time>2021-03-11T22:54:22+01:00</time>
      </trkpt>
      <trkpt lat="42.78909" lon="0.34887">
        <ele>1168</ele>
        <time>2021-03-11T22:54:27+01:00</time>
      </trkpt>
      <trkpt lat="42.79013" lon="0.3489">
        <ele>1163</ele>
        <time>2021-03-11T22:54:32+01:00</time>
      </trkpt>
      <trkpt lat="42.79091" lon="0.349">
        <ele>1159</ele>
        <time>2021-03-11T22:54:37+01:00</time>
      </trkpt>
      <trkpt lat="42.79176" lon="0.34945">
        <ele>1150</ele>
        <time>2021-03-11T22:54:42+01:00</time>
      </trkpt>
      <trkpt lat="42.79226" lon="0.34967">
        <ele>1147</ele>
        <time>2021-03-11T22:54:47+01:00</time>
      </trkpt>
      <trkpt lat="42.79289" lon="0.35006">
        <ele>1144</ele>
        <time>2021-03-11T22:54:52+01:00</time>
      </trkpt>
      <trkpt lat="42.79297" lon="0.34972">
        <ele>1147</ele>
        <time>2021-03-11T22:54:57+01:00</time>
      </trkpt>
      <trkpt lat="42.79309" lon="0.34944">
        <ele>1150</ele>
        <time>2021-03-11T22:55:02+01:00</time>
      </trkpt>
      <trkpt lat="42.79324" lon="0.34943">
        <ele>1150</ele>
        <time>2021-03-11T22:55:07+01:00</time>
      </trkpt>
      <trkpt lat="42.79372" lon="0.34947">
        <ele>1152</ele>
        <time>2021-03-11T22:55:12+01:00</time>
      </trkpt>
      <trkpt lat="42.79416" lon="0.34951">
        <ele>1154</ele>
        <time>2021-03-11T22:55:17+01:00</time>
      </trkpt>
      <trkpt lat="42.79483" lon="0.34976">
        <ele>1151</ele>
        <time>2021-03-11T22:55:22+01:00</time>
      </trkpt>
      <trkpt lat="42.79512" lon="0.34985">
        <ele>1150</ele>
        <time>2021-03-11T22:55:27+01:00</time>
      </trkpt>
      <trkpt lat="42.79543" lon="0.35">
        <ele>1149</ele>
        <time>2021-03-11T22:55:32+01:00</time>
      </trkpt>
      <trkpt lat="42.79572" lon="0.35012">
        <ele>1150</ele>
        <time>2021-03-11T22:55:37+01:00</time>
      </trkpt>
      <trkpt lat="42.7959" lon="0.35033">
        <ele>1145</ele>
        <time>2021-03-11T22:55:42+01:00</time>
      </trkpt>
      <trkpt lat="42.7963" lon="0.3505">
        <ele>1143</ele>
        <time>2021-03-11T22:55:47+01:00</time>
      </trkpt>
      <trkpt lat="42.79665" lon="0.35064">
        <ele>1138</ele>
        <time>2021-03-11T22:55:52+01:00</time>
      </trkpt>
      <trkpt lat="42.79694" lon="0.3508">
        <ele>1135</ele>
        <time>2021-03-11T22:55:57+01:00</time>
      </trkpt>
      <trkpt lat="42.79713" lon="0.35098">
        <ele>1134</ele>
        <time>2021-03-11T22:56:02+01:00</time>
      </trkpt>
      <trkpt lat="42.79733" lon="0.35114">
        <ele>1133</ele>
        <time>2021-03-11T22:56:07+01:00</time>
      </trkpt>
      <trkpt lat="42.79747" lon="0.35127">
        <ele>1131</ele>
        <time>2021-03-11T22:56:12+01:00</time>
      </trkpt>
      <trkpt lat="42.79799" lon="0.35171">
        <ele>1125</ele>
        <time>2021-03-11T22:56:17+01:00</time>
      </trkpt>
      <trkpt lat="42.79881" lon="0.35213">
        <ele>1129</ele>
        <time>2021-03-11T22:56:22+01:00</time>
      </trkpt>
      <trkpt lat="42.79986" lon="0.35252">
        <ele>1137</ele>
        <time>2021-03-11T22:56:27+01:00</time>
      </trkpt>
      <trkpt lat="42.80058" lon="0.3528">
        <ele>1146</ele>
        <time>2021-03-11T22:56:32+01:00</time>
      </trkpt>
      <trkpt lat="42.80132" lon="0.3534">
        <ele>1150</ele>
        <time>2021-03-11T22:56:37+01:00</time>
      </trkpt>
      <trkpt lat="42.80191" lon="0.35381">
        <ele>1154</ele>
        <time>2021-03-11T22:56:42+01:00</time>
      </trkpt>
      <trkpt lat="42.80239" lon="0.35396">
        <ele>1157</ele>
        <time>2021-03-11T22:56:47+01:00</time>
      </trkpt>
      <trkpt lat="42.80291" lon="0.35376">
        <ele>1158</ele>
        <time>2021-03-11T22:56:52+01:00</time>
      </trkpt>
      <trkpt lat="42.80334" lon="0.35351">
        <ele>1156</ele>
        <time>2021-03-11T22:56:57+01:00</time>
      </trkpt>
      <trkpt lat="42.80361" lon="0.35335">
        <ele>1175</ele>
        <time>2021-03-11T22:57:02+01:00</time>
      </trkpt>
      <trkpt lat="42.80384" lon="0.35335">
        <ele>1174</ele>
        <time>2021-03-11T22:57:07+01:00</time>
      </trkpt>
      <trkpt lat="42.8041" lon="0.35339">
        <ele>1170</ele>
        <time>2021-03-11T22:57:12+01:00</time>
      </trkpt>
      <trkpt lat="42.80426" lon="0.35353">
        <ele>1166</ele>
        <time>2021-03-11T22:57:17+01:00</time>
      </trkpt>
      <trkpt lat="42.80442" lon="0.35375">
        <ele>1123</ele>
        <time>2021-03-11T22:57:22+01:00</time>
      </trkpt>
      <trkpt lat="42.80452" lon="0.35383">
        <ele>1159</ele>
        <time>2021-03-11T22:57:27+01:00</time>
      </trkpt>
      <trkpt lat="42.80479" lon="0.35368">
        <ele>1112</ele>
        <time>2021-03-11T22:57:32+01:00</time>
      </trkpt>
      <trkpt lat="42.805" lon="0.35375">
        <ele>1102</ele>
        <time>2021-03-11T22:57:37+01:00</time>
      </trkpt>
      <trkpt lat="42.80524" lon="0.35349">
        <ele>1103</ele>
        <time>2021-03-11T22:57:42+01:00</time>
      </trkpt>
      <trkpt lat="42.80553" lon="0.35325">
        <ele>1101</ele>
        <time>2021-03-11T22:57:47+01:00</time>
      </trkpt>
      <trkpt lat="42.80572" lon="0.35314">
        <ele>1098</ele>
        <time>2021-03-11T22:57:52+01:00</time>
      </trkpt>
      <trkpt lat="42.80579" lon="0.35342">
        <ele>1090</ele>
        <time>2021-03-11T22:57:57+01:00</time>
      </trkpt>
      <trkpt lat="42.80591" lon="0.3536">
        <ele>1086</ele>
        <time>2021-03-11T22:58:02+01:00</time>
      </trkpt>
      <trkpt lat="42.80611" lon="0.3537">
        <ele>1083</ele>
        <time>2021-03-11T22:58:07+01:00</time>
      </trkpt>
      <trkpt lat="42.80598" lon="0.35387">
        <ele>1082</ele>
        <time>2021-03-11T22:58:12+01:00</time>
      </trkpt>
      <trkpt lat="42.80618" lon="0.35397">
        <ele>1080</ele>
        <time>2021-03-11T22:58:17+01:00</time>
      </trkpt>
      <trkpt lat="42.80631" lon="0.35375">
        <ele>1080</ele>
        <time>2021-03-11T22:58:22+01:00</time>
      </trkpt>
      <trkpt lat="42.80645" lon="0.3538">
        <ele>1079</ele>
        <time>2021-03-11T22:58:27+01:00</time>
      </trkpt>
      <trkpt lat="42.80646" lon="0.35402">
        <ele>1079</ele>
        <time>2021-03-11T22:58:32+01:00</time>
      </trkpt>
      <trkpt lat="42.80657" lon="0.35424">
        <ele>1080</ele>
        <time>2021-03-11T22:58:37+01:00</time>
      </trkpt>
      <trkpt lat="42.80671" lon="0.3543">
        <ele>1082</ele>
        <time>2021-03-11T22:58:42+01:00</time>
      </trkpt>
      <trkpt lat="42.80684" lon="0.35418">
        <ele>1084</ele>
        <time>2021-03-11T22:58:47+01:00</time>
      </trkpt>
      <trkpt lat="42.80691" lon="0.35403">
        <ele>1084</ele>
        <time>2021-03-11T22:58:52+01:00</time>
      </trkpt>
      <trkpt lat="42.807" lon="0.35387">
        <ele>1083</ele>
        <time>2021-03-11T22:58:57+01:00</time>
      </trkpt>
      <trkpt lat="42.80713" lon="0.35375">
        <ele>1083</ele>
        <time>2021-03-11T22:59:02+01:00</time>
      </trkpt>
      <trkpt lat="42.80724" lon="0.35368">
        <ele>1083</ele>
        <time>2021-03-11T22:59:07+01:00</time>
      </trkpt>
      <trkpt lat="42.80742" lon="0.35359">
        <ele>1083</ele>
        <time>2021-03-11T22:59:12+01:00</time>
      </trkpt>
      <trkpt lat="42.80762" lon="0.35337">
        <ele>1083</ele>
        <time>2021-03-11T22:59:17+01:00</time>
      </trkpt>
      <trkpt lat="42.80795" lon="0.35279">
        <ele>1088</ele>
        <time>2021-03-11T22:59:22+01:00</time>
      </trkpt>
      <trkpt lat="42.80826" lon="0.35228">
        <ele>1093</ele>
        <time>2021-03-11T22:59:27+01:00</time>
      </trkpt>
      <trkpt lat="42.80846" lon="0.35195">
        <ele>1096</ele>
        <time>2021-03-11T22:59:32+01:00</time>
      </trkpt>
      <trkpt lat="42.80866" lon="0.35179">
        <ele>1105</ele>
        <time>2021-03-11T22:59:37+01:00</time>
      </trkpt>
      <trkpt lat="42.80888" lon="0.35183">
        <ele>1117</ele>
        <time>2021-03-11T22:59:42+01:00</time>
      </trkpt>
      <trkpt lat="42.80901" lon="0.35191">
        <ele>1124</ele>
        <time>2021-03-11T22:59:47+01:00</time>
      </trkpt>
      <trkpt lat="42.80916" lon="0.3519">
        <ele>1132</ele>
        <time>2021-03-11T22:59:52+01:00</time>
      </trkpt>
      <trkpt lat="42.80933" lon="0.35172">
        <ele>1135</ele>
        <time>2021-03-11T22:59:57+01:00</time>
      </trkpt>
      <trkpt lat="42.80945" lon="0.35151">
        <ele>1136</ele>
        <time>2021-03-11T23:00:02+01:00</time>
      </trkpt>
      <trkpt lat="42.80973" lon="0.35173">
        <ele>1147</ele>
        <time>2021-03-11T23:00:07+01:00</time>
      </trkpt>
      <trkpt lat="42.81009" lon="0.35196">
        <ele>1157</ele>
        <time>2021-03-11T23:00:12+01:00</time>
      </trkpt>
      <trkpt lat="42.81022" lon="0.35202">
        <ele>1159</ele>
        <time>2021-03-11T23:00:17+01:00</time>
      </trkpt>
      <trkpt lat="42.81039" lon="0.35195">
        <ele>1161</ele>
        <time>2021-03-11T23:00:22+01:00</time>
      </trkpt>
      <trkpt lat="42.81045" lon="0.35217">
        <ele>1163</ele>
        <time>2021-03-11T23:00:27+01:00</time>
      </trkpt>
    </trkseg>
  </trk>
</gpx>